EDFH

Frankfurt-Hahn Airport

Hahn, Germany
METAR EDFH 172050Z 07003KT CAVOK M02/M05 Q1023
Observed Flight Rules
Feb-17 @ 20:50 UTC (47 minutes ago) Visual Flight Rules
Wind Visibility Clouds
70° at 3 knots 10,000+ meters
  • Clear skies
Temperatures Readings
Current -2°C / 28°F
Dewpoint -5°C / 23°F
Humidity 80%
Altimeter 30.21" Hg
Pressure 1023 hPa
Elevation 498
METAR EDFH 172050Z 07003KT CAVOK M02/M05 Q1023
Observed Flight Rules
Feb-17 @ 20:50 UTC
(47 minutes ago)
VFR
Wind Visibility
70° at 3 knots 10,000+ meters
Clouds
  • Clear skies
Temperature Dewpoint
-2°C / 28°F -5°C / 23°F
Humidity Altimeter Pressure
80% 30.21" Hg 1023 hPa